Time,TemperatureF,DewpointF,PressureIn,WindDirection,WindDirectionDegrees,WindSpeedMPH,WindSpeedGustMPH,Humidity,HourlyPrecipIn,Conditions,Clouds,dailyrainin,SolarRadiationWatts/m^2,SoftwareType,DateUTC
2013-05-20 10:12:00,52.0,44.0,30.18,SW,226,9.0,12.0,73,-99.99,,,-99.99,635.599976,,2013-05-20 16:12:00,
2013-05-20 10:22:00,52.0,43.0,30.18,SW,235,9.0,12.0,71,-99.99,,,-99.99,638.700012,,2013-05-20 16:22:00,
2013-05-20 10:33:00,53.0,43.0,30.18,WSW,249,10.0,13.0,69,-99.99,,,-99.99,663.299988,,2013-05-20 16:33:00,
2013-05-20 10:42:00,53.0,43.0,30.18,SW,231,10.0,14.0,69,-99.99,,,-99.99,701.000000,,2013-05-20 16:42:00,
2013-05-20 10:52:00,53.0,44.0,30.18,WSW,248,10.0,13.0,69,-99.99,,,-99.99,728.900024,,2013-05-20 16:52:00,
2013-05-20 11:02:00,53.0,43.0,30.18,WSW,247,10.0,12.0,67,-99.99,,,-99.99,771.099976,,2013-05-20 17:02:00,
2013-05-20 11:11:00,54.0,43.0,30.18,SW,233,10.0,14.0,66,-99.99,,,-99.99,777.099976,,2013-05-20 17:11:00,
2013-05-20 11:22:00,54.0,43.0,30.18,WSW,246,10.0,14.0,64,-99.99,,,-99.99,795.200012,,2013-05-20 17:22:00,
2013-05-20 11:32:00,54.0,43.0,30.18,SW,227,7.0,12.0,64,-99.99,,,-99.99,837.000000,,2013-05-20 17:32:00,
2013-05-20 11:44:00,56.0,43.0,30.17,West,272,8.0,12.0,62,-99.99,,,-99.99,853.000000,,2013-05-20 17:44:00,
2013-05-20 11:53:00,56.0,42.0,30.17,SW,232,8.0,12.0,60,-99.99,,,-99.99,872.000000,,2013-05-20 17:53:00,
2013-05-20 12:02:00,56.0,43.0,30.17,WSW,251,6.0,9.0,60,-99.99,,,-99.99,893.000000,,2013-05-20 18:02:00,
2013-05-20 12:12:00,57.0,43.0,30.17,WSW,251,6.0,10.0,59,-99.99,,,-99.99,916.000000,,2013-05-20 18:12:00,
2013-05-20 12:23:00,57.0,43.0,30.17,SSW,212,6.0,12.0,59,-99.99,,,-99.99,938.000000,,2013-05-20 18:23:00,
2013-05-20 12:32:00,58.0,44.0,30.17,SW,235,8.0,11.0,58,-99.99,,,-99.99,943.000000,,2013-05-20 18:32:00,
2013-05-20 12:41:00,59.0,44.0,30.16,WSW,239,6.0,10.0,57,-99.99,,,-99.99,997.000000,,2013-05-20 18:41:00,
2013-05-20 12:55:00,59.0,43.0,30.16,West,277,6.0,9.0,55,-99.99,,,-99.99,1004.000000,,2013-05-20 18:55:00,
2013-05-20 13:04:00,60.0,43.0,30.16,WSW,245,5.0,10.0,53,-99.99,,,-99.99,632.599976,,2013-05-20 19:04:00,
2013-05-20 13:11:00,60.0,44.0,30.15,SSW,205,6.0,9.0,54,-99.99,,,-99.99,1073.000000,,2013-05-20 19:11:00,
2013-05-20 13:21:00,60.0,43.0,30.15,SW,230,5.0,8.0,53,-99.99,,,-99.99,955.000000,,2013-05-20 19:21:00,
2013-05-20 13:32:00,60.0,42.0,30.15,NW,311,4.0,7.0,51,-99.99,,,-99.99,672.599976,,2013-05-20 19:32:00,
2013-05-20 13:41:00,61.0,41.0,30.15,North,2,5.0,9.0,49,-99.99,,,-99.99,1086.000000,,2013-05-20 19:41:00,
2013-05-20 13:52:00,61.0,41.0,30.14,NNE,20,4.0,6.0,47,-99.99,,,-99.99,1088.000000,,2013-05-20 19:52:00,
2013-05-20 14:01:00,62.0,42.0,30.14,NNE,12,6.0,9.0,47,-99.99,,,-99.99,997.000000,,2013-05-20 20:01:00,
2013-05-20 14:11:00,63.0,42.0,30.14,NW,305,6.0,15.0,46,-99.99,,,-99.99,970.000000,,2013-05-20 20:11:00,
2013-05-20 14:21:00,63.0,42.0,30.14,SW,221,6.0,10.0,46,-99.99,,,-99.99,804.000000,,2013-05-20 20:21:00,
2013-05-20 14:32:00,61.0,41.0,30.14,West,280,3.0,4.0,47,-99.99,,,-99.99,337.899994,,2013-05-20 20:32:00,
2013-05-20 14:42:00,62.0,42.0,30.13,WSW,256,6.0,12.0,46,-99.99,,,-99.99,488.100006,,2013-05-20 20:42:00,
2013-05-20 14:51:00,62.0,41.0,30.13,West,259,5.0,7.0,46,-99.99,,,-99.99,361.500000,,2013-05-20 20:51:00,
2013-05-20 15:01:00,63.0,42.0,30.13,NNW,329,6.0,9.0,46,-99.99,,,-99.99,466.000000,,2013-05-20 21:01:00,
2013-05-20 15:11:00,62.0,41.0,30.12,NW,326,9.0,12.0,45,-99.99,,,-99.99,446.600006,,2013-05-20 21:11:00,
2013-05-20 15:21:00,63.0,40.0,30.12,WNW,289,9.0,11.0,43,-99.99,,,-99.99,607.799988,,2013-05-20 21:21:00,
2013-05-20 15:32:00,63.0,40.0,30.11,NNE,14,5.0,11.0,43,-99.99,,,-99.99,564.900024,,2013-05-20 21:32:00,
2013-05-20 15:42:00,64.0,41.0,30.11,NW,324,5.0,9.0,43,-99.99,,,-99.99,739.900024,,2013-05-20 21:42:00,
2013-05-20 15:53:00,63.0,39.0,30.11,NNW,343,6.0,10.0,40,-99.99,,,-99.99,407.299988,,2013-05-20 21:53:00,
2013-05-20 16:02:00,64.0,38.0,30.11,NW,318,8.0,10.0,39,-99.99,,,-99.99,779.099976,,2013-05-20 22:02:00,
2013-05-20 16:12:00,64.0,38.0,30.11,WNW,287,4.0,9.0,39,-99.99,,,-99.99,538.400024,,2013-05-20 22:12:00,
2013-05-20 16:22:00,65.0,38.0,30.10,North,3,7.0,11.0,36,-99.99,,,-99.99,809.000000,,2013-05-20 22:22:00,
2013-05-20 16:33:00,64.0,39.0,30.10,NNW,337,8.0,12.0,39,-99.99,,,-99.99,421.399994,,2013-05-20 22:33:00,
2013-05-20 16:41:00,65.0,40.0,30.10,NNW,337,6.0,11.0,39,-99.99,,,-99.99,853.000000,,2013-05-20 22:41:00,
2013-05-20 16:52:00,65.0,39.0,30.10,North,355,6.0,13.0,39,-99.99,,,-99.99,891.000000,,2013-05-20 22:52:00,
2013-05-20 17:02:00,65.0,38.0,30.10,North,350,9.0,13.0,37,-99.99,,,-99.99,317.399994,,2013-05-20 23:02:00,
2013-05-20 17:12:00,65.0,37.0,30.10,NNW,341,10.0,12.0,36,-99.99,,,-99.99,275.700012,,2013-05-20 23:12:00,
2013-05-20 17:21:00,65.0,39.0,30.10,North,353,6.0,8.0,38,-99.99,,,-99.99,374.200012,,2013-05-20 23:21:00,
2013-05-20 17:32:00,66.0,40.0,30.09,West,263,8.0,11.0,39,-99.99,,,-99.99,482.600006,,2013-05-20 23:32:00,
2013-05-20 17:41:00,64.0,41.0,30.09,WSW,254,8.0,11.0,41,-99.99,,,-99.99,243.500000,,2013-05-20 23:41:00,
2013-05-20 17:52:00,64.0,40.0,30.09,WNW,284,5.0,7.0,41,-99.99,,,-99.99,319.500000,,2013-05-20 23:52:00,
2013-05-20 18:01:00,65.0,37.0,30.09,WNW,302,6.0,8.0,35,-99.99,,,-99.99,523.000000,,2013-05-21 00:01:00,
2013-05-20 18:11:00,64.0,41.0,30.09,West,261,6.0,9.0,42,-99.99,,,-99.99,201.600006,,2013-05-21 00:11:00,
2013-05-20 18:21:00,64.0,41.0,30.09,WSW,254,4.0,5.0,42,-99.99,,,-99.99,166.300003,,2013-05-21 00:21:00,
2013-05-20 18:31:00,64.0,38.0,30.09,West,278,5.0,8.0,39,-99.99,,,-99.99,190.000000,,2013-05-21 00:31:00,
2013-05-20 18:41:00,65.0,40.0,30.08,West,276,6.0,9.0,40,-99.99,,,-99.99,157.000000,,2013-05-21 00:41:00,
2013-05-20 18:52:00,63.0,43.0,30.08,WSW,238,7.0,8.0,46,-99.99,,,-99.99,124.900002,,2013-05-21 00:52:00,
2013-05-20 19:01:00,63.0,42.0,30.08,WSW,240,7.0,10.0,47,-99.99,,,-99.99,117.099998,,2013-05-21 01:01:00,
2013-05-20 19:11:00,63.0,42.0,30.08,WSW,243,7.0,9.0,46,-99.99,,,-99.99,185.600006,,2013-05-21 01:11:00,
2013-05-20 19:21:00,64.0,41.0,30.08,West,262,5.0,6.0,43,-99.99,,,-99.99,173.899994,,2013-05-21 01:21:00,
2013-05-20 19:32:00,64.0,39.0,30.08,NW,314,6.0,8.0,39,-99.99,,,-99.99,89.199997,,2013-05-21 01:32:00,
2013-05-20 19:42:00,64.0,38.0,30.08,NW,313,3.0,4.0,37,-99.99,,,-99.99,103.500000,,2013-05-21 01:42:00,
2013-05-20 19:52:00,64.0,37.0,30.08,NW,309,4.0,6.0,37,-99.99,,,-99.99,76.500000,,2013-05-21 01:52:00,
2013-05-20 20:01:00,64.0,39.0,30.07,NNW,347,4.0,5.0,39,-99.99,,,-99.99,68.400002,,2013-05-21 02:01:00,
2013-05-20 20:11:00,63.0,42.0,30.07,North,349,5.0,6.0,45,-99.99,,,-99.99,41.900002,,2013-05-21 02:11:00,
2013-05-20 20:21:00,63.0,40.0,30.07,NNW,336,5.0,7.0,43,-99.99,,,-99.99,47.000000,,2013-05-21 02:21:00,
2013-05-20 20:32:00,63.0,41.0,30.07,North,356,5.0,6.0,44,-99.99,,,-99.99,79.000000,,2013-05-21 02:32:00,
2013-05-20 20:41:00,63.0,38.0,30.07,North,357,4.0,5.0,39,-99.99,,,-99.99,53.900002,,2013-05-21 02:41:00,
2013-05-20 20:52:00,63.0,37.0,30.07,NW,326,2.0,4.0,39,-99.99,,,-99.99,33.299999,,2013-05-21 02:52:00,
2013-05-20 21:01:00,62.0,40.0,30.07,East,83,3.0,4.0,45,-99.99,,,-99.99,10.600000,,2013-05-21 03:01:00,
2013-05-20 21:11:00,61.0,42.0,30.07,ESE,120,2.0,3.0,48,-99.99,,,-99.99,2.800000,,2013-05-21 03:11:00,
2013-05-20 21:21:00,59.0,42.0,30.07,SE,138,2.0,3.0,54,-99.99,,,-99.99,0.800000,,2013-05-21 03:21:00,
2013-05-20 21:33:00,60.0,41.0,30.07,East,97,3.0,3.0,49,-99.99,,,-99.99,0.100000,,2013-05-21 03:33:00,
2013-05-20 21:42:00,58.0,43.0,30.06,ESE,115,4.0,4.0,57,-99.99,,,-99.99,0.000000,,2013-05-21 03:42:00,
2013-05-20 21:53:00,55.0,43.0,30.06,SSE,160,3.0,4.0,62,-99.99,,,-99.99,0.000000,,2013-05-21 03:53:00,
2013-05-20 22:03:00,54.0,42.0,30.07,East,98,4.0,6.0,64,-99.99,,,-99.99,-0.100000,,2013-05-21 04:03:00,
2013-05-20 22:12:00,53.0,43.0,30.07,East,90,3.0,4.0,68,-99.99,,,-99.99,0.000000,,2013-05-21 04:12:00,
2013-05-20 22:22:00,52.0,42.0,30.07,ESE,116,5.0,5.0,67,-99.99,,,-99.99,0.000000,,2013-05-21 04:22:00,
2013-05-20 22:33:00,53.0,41.0,30.07,SE,124,4.0,5.0,65,-99.99,,,-99.99,0.000000,,2013-05-21 04:33:00,
2013-05-20 22:42:00,53.0,42.0,30.07,SE,125,5.0,6.0,66,-99.99,,,-99.99,-0.100000,,2013-05-21 04:42:00,
2013-05-20 22:52:00,53.0,42.0,30.07,SE,127,3.0,4.0,68,-99.99,,,-99.99,0.000000,,2013-05-21 04:52:00,
2013-05-20 23:02:00,54.0,42.0,30.07,ENE,69,4.0,5.0,63,-99.99,,,-99.99,-0.100000,,2013-05-21 05:02:00,
2013-05-20 23:11:00,54.0,43.0,30.07,ENE,78,4.0,5.0,64,-99.99,,,-99.99,-0.100000,,2013-05-21 05:11:00,
2013-05-20 23:21:00,53.0,43.0,30.07,East,99,3.0,4.0,68,-99.99,,,-99.99,0.000000,,2013-05-21 05:21:00,
2013-05-20 23:31:00,53.0,43.0,30.07,NE,38,2.0,4.0,69,-99.99,,,-99.99,-0.100000,,2013-05-21 05:31:00,
2013-05-20 23:42:00,52.0,43.0,30.07,ESE,105,3.0,4.0,69,-99.99,,,-99.99,0.000000,,2013-05-21 05:42:00,
2013-05-20 23:51:00,52.0,43.0,30.08,North,7,3.0,4.0,70,-99.99,,,-99.99,0.000000,,2013-05-21 05:51:00,